sensor_id;sensor_type;location;lat;lon;timestamp;temperature;humidity
10278;DHT22;5184;51.376;7.148;2023-07-24T00:00:46;17.60;99.90
10278;DHT22;5184;51.376;7.148;2023-07-24T00:03:13;17.60;99.90
10278;DHT22;5184;51.376;7.148;2023-07-24T00:05:40;17.60;99.90
10278;DHT22;5184;51.376;7.148;2023-07-24T00:08:07;17.60;99.90
10278;DHT22;5184;51.376;7.148;2023-07-24T00:10:34;17.60;99.90
10278;DHT22;5184;51.376;7.148;2023-07-24T00:13:00;17.60;99.90
10278;DHT22;5184;51.376;7.148;2023-07-24T00:15:27;17.60;99.90
10278;DHT22;5184;51.376;7.148;2023-07-24T00:17:54;17.60;99.90
10278;DHT22;5184;51.376;7.148;2023-07-24T00:20:21;17.60;99.90
10278;DHT22;5184;51.376;7.148;2023-07-24T00:22:48;17.70;99.90
10278;DHT22;5184;51.376;7.148;2023-07-24T00:25:16;17.60;99.90
10278;DHT22;5184;51.376;7.148;2023-07-24T00:27:42;17.60;99.90
10278;DHT22;5184;51.376;7.148;2023-07-24T00:30:09;17.60;99.90
10278;DHT22;5184;51.376;7.148;2023-07-24T00:32:36;17.60;99.90
10278;DHT22;5184;51.376;7.148;2023-07-24T00:35:02;17.60;99.90
10278;DHT22;5184;51.376;7.148;2023-07-24T00:37:29;17.60;99.90
10278;DHT22;5184;51.376;7.148;2023-07-24T00:39:56;17.60;99.90
10278;DHT22;5184;51.376;7.148;2023-07-24T00:42:24;17.50;99.90
10278;DHT22;5184;51.376;7.148;2023-07-24T00:44:51;17.50;99.90
10278;DHT22;5184;51.376;7.148;2023-07-24T00:47:18;17.50;99.90
10278;DHT22;5184;51.376;7.148;2023-07-24T00:49:44;17.50;99.90
10278;DHT22;5184;51.376;7.148;2023-07-24T00:52:11;17.50;99.90
10278;DHT22;5184;51.376;7.148;2023-07-24T00:54:38;17.40;99.90
10278;DHT22;5184;51.376;7.148;2023-07-24T00:57:05;17.40;99.90
10278;DHT22;5184;51.376;7.148;2023-07-24T00:59:32;17.40;99.90
10278;DHT22;5184;51.376;7.148;2023-07-24T01:01:58;17.40;99.90
10278;DHT22;5184;51.376;7.148;2023-07-24T01:04:25;17.40;99.90
10278;DHT22;5184;51.376;7.148;2023-07-24T01:06:52;17.40;99.90
10278;DHT22;5184;51.376;7.148;2023-07-24T01:09:19;17.40;99.90
10278;DHT22;5184;51.376;7.148;2023-07-24T01:11:46;17.40;99.90
10278;DHT22;5184;51.376;7.148;2023-07-24T01:14:17;17.40;99.90
10278;DHT22;5184;51.376;7.148;2023-07-24T01:16:41;17.40;99.90
10278;DHT22;5184;51.376;7.148;2023-07-24T01:19:12;17.40;99.90
10278;DHT22;5184;51.376;7.148;2023-07-24T01:21:44;17.40;99.90
10278;DHT22;5184;51.376;7.148;2023-07-24T01:24:14;17.40;99.90
10278;DHT22;5184;51.376;7.148;2023-07-24T01:26:36;17.40;99.90
10278;DHT22;5184;51.376;7.148;2023-07-24T01:29:02;17.30;99.90
10278;DHT22;5184;51.376;7.148;2023-07-24T01:31:29;17.40;99.90
10278;DHT22;5184;51.376;7.148;2023-07-24T01:33:56;17.40;99.90
10278;DHT22;5184;51.376;7.148;2023-07-24T01:36:22;17.30;99.90
10278;DHT22;5184;51.376;7.148;2023-07-24T01:38:49;17.30;99.90
10278;DHT22;5184;51.376;7.148;2023-07-24T01:41:16;17.30;99.90
10278;DHT22;5184;51.376;7.148;2023-07-24T01:43:43;15.90;99.90
10278;DHT22;5184;51.376;7.148;2023-07-24T01:46:10;17.30;99.90
10278;DHT22;5184;51.376;7.148;2023-07-24T01:48:37;17.20;99.90
10278;DHT22;5184;51.376;7.148;2023-07-24T01:51:03;17.20;99.90
10278;DHT22;5184;51.376;7.148;2023-07-24T01:53:31;17.20;99.90
10278;DHT22;5184;51.376;7.148;2023-07-24T01:55:58;17.20;99.90
10278;DHT22;5184;51.376;7.148;2023-07-24T01:58:24;17.20;99.90
10278;DHT22;5184;51.376;7.148;2023-07-24T02:00:51;17.20;99.90
10278;DHT22;5184;51.376;7.148;2023-07-24T02:03:18;17.10;99.90
10278;DHT22;5184;51.376;7.148;2023-07-24T02:05:48;17.10;99.90
10278;DHT22;5184;51.376;7.148;2023-07-24T02:08:11;14.20;99.90
10278;DHT22;5184;51.376;7.148;2023-07-24T02:10:37;17.10;99.90
10278;DHT22;5184;51.376;7.148;2023-07-24T02:13:04;17.10;99.90
10278;DHT22;5184;51.376;7.148;2023-07-24T02:15:31;17.10;99.90
10278;DHT22;5184;51.376;7.148;2023-07-24T02:17:58;17.00;99.90
10278;DHT22;5184;51.376;7.148;2023-07-24T02:20:25;17.00;99.90
10278;DHT22;5184;51.376;7.148;2023-07-24T02:22:51;17.10;99.90
10278;DHT22;5184;51.376;7.148;2023-07-24T02:25:19;17.20;99.90
10278;DHT22;5184;51.376;7.148;2023-07-24T02:27:45;17.10;99.90
10278;DHT22;5184;51.376;7.148;2023-07-24T02:30:12;17.20;99.90
10278;DHT22;5184;51.376;7.148;2023-07-24T02:32:38;17.20;99.90
10278;DHT22;5184;51.376;7.148;2023-07-24T02:35:06;17.20;99.90
10278;DHT22;5184;51.376;7.148;2023-07-24T02:37:32;17.20;99.90
10278;DHT22;5184;51.376;7.148;2023-07-24T02:39:59;17.20;99.90
10278;DHT22;5184;51.376;7.148;2023-07-24T02:42:26;17.20;99.90
10278;DHT22;5184;51.376;7.148;2023-07-24T02:44:52;17.20;99.90
10278;DHT22;5184;51.376;7.148;2023-07-24T02:47:19;17.30;99.90
10278;DHT22;5184;51.376;7.148;2023-07-24T02:49:45;17.30;99.90
10278;DHT22;5184;51.376;7.148;2023-07-24T02:52:12;20.20;99.90
10278;DHT22;5184;51.376;7.148;2023-07-24T02:54:39;17.40;99.90
10278;DHT22;5184;51.376;7.148;2023-07-24T02:57:05;17.40;99.90
10278;DHT22;5184;51.376;7.148;2023-07-24T02:59:32;17.40;99.90
10278;DHT22;5184;51.376;7.148;2023-07-24T03:01:59;17.40;99.90
10278;DHT22;5184;51.376;7.148;2023-07-24T03:04:25;17.40;99.90
10278;DHT22;5184;51.376;7.148;2023-07-24T03:06:52;17.50;99.90
10278;DHT22;5184;51.376;7.148;2023-07-24T03:09:18;17.50;99.90
10278;DHT22;5184;51.376;7.148;2023-07-24T03:11:45;17.40;99.90
10278;DHT22;5184;51.376;7.148;2023-07-24T03:14:11;17.40;99.90
10278;DHT22;5184;51.376;7.148;2023-07-24T03:16:38;17.40;99.90
10278;DHT22;5184;51.376;7.148;2023-07-24T03:19:05;17.40;99.90
10278;DHT22;5184;51.376;7.148;2023-07-24T03:21:31;17.30;99.90
10278;DHT22;5184;51.376;7.148;2023-07-24T03:23:58;17.30;99.90
10278;DHT22;5184;51.376;7.148;2023-07-24T03:26:24;17.30;99.90
10278;DHT22;5184;51.376;7.148;2023-07-24T03:28:52;17.30;99.90
10278;DHT22;5184;51.376;7.148;2023-07-24T03:31:18;17.30;99.90
10278;DHT22;5184;51.376;7.148;2023-07-24T03:33:46;17.30;99.90
10278;DHT22;5184;51.376;7.148;2023-07-24T03:36:13;17.30;99.90
10278;DHT22;5184;51.376;7.148;2023-07-24T03:38:40;17.30;99.90
10278;DHT22;5184;51.376;7.148;2023-07-24T03:41:07;17.10;99.90
10278;DHT22;5184;51.376;7.148;2023-07-24T03:43:34;17.30;99.90
10278;DHT22;5184;51.376;7.148;2023-07-24T03:46:00;17.20;99.90
10278;DHT22;5184;51.376;7.148;2023-07-24T03:48:27;17.20;99.90
10278;DHT22;5184;51.376;7.148;2023-07-24T03:51:01;17.20;99.90
10278;DHT22;5184;51.376;7.148;2023-07-24T03:53:27;17.20;99.90
10278;DHT22;5184;51.376;7.148;2023-07-24T03:55:54;17.20;99.90
10278;DHT22;5184;51.376;7.148;2023-07-24T03:58:21;17.20;99.90
10278;DHT22;5184;51.376;7.148;2023-07-24T04:00:48;17.20;99.90
10278;DHT22;5184;51.376;7.148;2023-07-24T04:03:15;17.20;99.90
10278;DHT22;5184;51.376;7.148;2023-07-24T04:05:42;17.20;99.90
10278;DHT22;5184;51.376;7.148;2023-07-24T04:08:09;17.20;99.90
10278;DHT22;5184;51.376;7.148;2023-07-24T04:10:35;17.20;99.90
10278;DHT22;5184;51.376;7.148;2023-07-24T04:13:02;17.20;99.90
10278;DHT22;5184;51.376;7.148;2023-07-24T04:15:29;17.20;99.90
10278;DHT22;5184;51.376;7.148;2023-07-24T04:17:56;17.20;99.90
10278;DHT22;5184;51.376;7.148;2023-07-24T04:20:22;17.30;99.90
10278;DHT22;5184;51.376;7.148;2023-07-24T04:22:49;17.20;99.90
10278;DHT22;5184;51.376;7.148;2023-07-24T04:25:15;17.20;99.90
10278;DHT22;5184;51.376;7.148;2023-07-24T04:27:42;17.20;99.90
10278;DHT22;5184;51.376;7.148;2023-07-24T04:30:10;17.30;99.90
10278;DHT22;5184;51.376;7.148;2023-07-24T04:32:36;17.30;99.90
10278;DHT22;5184;51.376;7.148;2023-07-24T04:35:03;17.30;99.90
10278;DHT22;5184;51.376;7.148;2023-07-24T04:37:30;17.30;99.90
10278;DHT22;5184;51.376;7.148;2023-07-24T04:39:56;17.30;99.90
10278;DHT22;5184;51.376;7.148;2023-07-24T04:42:23;17.30;99.90
10278;DHT22;5184;51.376;7.148;2023-07-24T04:44:49;17.30;99.90
10278;DHT22;5184;51.376;7.148;2023-07-24T04:47:17;17.30;99.90
10278;DHT22;5184;51.376;7.148;2023-07-24T04:49:44;17.30;99.90
10278;DHT22;5184;51.376;7.148;2023-07-24T04:52:11;17.20;99.90
10278;DHT22;5184;51.376;7.148;2023-07-24T04:54:37;17.30;99.90
10278;DHT22;5184;51.376;7.148;2023-07-24T04:57:05;17.30;99.90
10278;DHT22;5184;51.376;7.148;2023-07-24T04:59:33;17.30;99.90
10278;DHT22;5184;51.376;7.148;2023-07-24T05:01:59;17.30;99.90
10278;DHT22;5184;51.376;7.148;2023-07-24T05:04:26;17.30;99.90
10278;DHT22;5184;51.376;7.148;2023-07-24T05:06:53;16.20;99.90
10278;DHT22;5184;51.376;7.148;2023-07-24T05:09:20;17.20;99.90
10278;DHT22;5184;51.376;7.148;2023-07-24T05:11:47;17.30;99.90
10278;DHT22;5184;51.376;7.148;2023-07-24T05:14:15;17.20;99.90
10278;DHT22;5184;51.376;7.148;2023-07-24T05:16:42;17.20;99.90
10278;DHT22;5184;51.376;7.148;2023-07-24T05:19:09;17.30;99.90
10278;DHT22;5184;51.376;7.148;2023-07-24T05:21:36;17.30;99.90
10278;DHT22;5184;51.376;7.148;2023-07-24T05:24:02;17.40;99.90
10278;DHT22;5184;51.376;7.148;2023-07-24T05:26:29;17.40;99.90
10278;DHT22;5184;51.376;7.148;2023-07-24T05:28:56;17.40;99.90
10278;DHT22;5184;51.376;7.148;2023-07-24T05:31:23;17.40;99.90
10278;DHT22;5184;51.376;7.148;2023-07-24T05:33:49;17.50;99.90
10278;DHT22;5184;51.376;7.148;2023-07-24T05:36:16;17.50;99.90
10278;DHT22;5184;51.376;7.148;2023-07-24T05:38:43;17.50;99.90
10278;DHT22;5184;51.376;7.148;2023-07-24T05:41:10;17.50;99.90
10278;DHT22;5184;51.376;7.148;2023-07-24T05:43:37;17.50;99.90
10278;DHT22;5184;51.376;7.148;2023-07-24T05:46:04;17.50;99.90
10278;DHT22;5184;51.376;7.148;2023-07-24T05:48:30;17.60;99.90
10278;DHT22;5184;51.376;7.148;2023-07-24T05:50:57;17.50;99.90
10278;DHT22;5184;51.376;7.148;2023-07-24T05:53:24;17.50;99.90
10278;DHT22;5184;51.376;7.148;2023-07-24T05:55:56;17.40;99.90
10278;DHT22;5184;51.376;7.148;2023-07-24T05:58:22;17.40;99.90
10278;DHT22;5184;51.376;7.148;2023-07-24T06:00:49;17.50;99.90
10278;DHT22;5184;51.376;7.148;2023-07-24T06:03:16;17.50;99.90
10278;DHT22;5184;51.376;7.148;2023-07-24T06:05:43;17.50;99.90
10278;DHT22;5184;51.376;7.148;2023-07-24T06:08:09;17.40;99.90
10278;DHT22;5184;51.376;7.148;2023-07-24T06:10:36;17.40;99.90
10278;DHT22;5184;51.376;7.148;2023-07-24T06:13:04;17.40;99.90
10278;DHT22;5184;51.376;7.148;2023-07-24T06:15:31;17.50;99.90
10278;DHT22;5184;51.376;7.148;2023-07-24T06:17:58;17.50;99.90
10278;DHT22;5184;51.376;7.148;2023-07-24T06:20:25;17.60;99.90
10278;DHT22;5184;51.376;7.148;2023-07-24T06:22:52;17.60;99.90
10278;DHT22;5184;51.376;7.148;2023-07-24T06:25:18;17.60;99.90
10278;DHT22;5184;51.376;7.148;2023-07-24T06:27:45;17.60;99.90
10278;DHT22;5184;51.376;7.148;2023-07-24T06:30:12;17.70;99.90
10278;DHT22;5184;51.376;7.148;2023-07-24T06:32:38;17.70;99.90
10278;DHT22;5184;51.376;7.148;2023-07-24T06:35:06;17.70;99.90
10278;DHT22;5184;51.376;7.148;2023-07-24T06:37:33;17.80;99.90
10278;DHT22;5184;51.376;7.148;2023-07-24T06:40:00;17.90;99.90
10278;DHT22;5184;51.376;7.148;2023-07-24T06:42:26;18.00;99.90
10278;DHT22;5184;51.376;7.148;2023-07-24T06:44:53;18.00;99.90
10278;DHT22;5184;51.376;7.148;2023-07-24T06:47:19;18.10;99.90
10278;DHT22;5184;51.376;7.148;2023-07-24T06:49:46;18.20;99.90
10278;DHT22;5184;51.376;7.148;2023-07-24T06:52:13;18.30;99.90
10278;DHT22;5184;51.376;7.148;2023-07-24T06:54:41;18.30;99.90
10278;DHT22;5184;51.376;7.148;2023-07-24T06:57:09;18.20;99.90
10278;DHT22;5184;51.376;7.148;2023-07-24T06:59:36;18.20;99.90
10278;DHT22;5184;51.376;7.148;2023-07-24T07:02:04;18.30;99.90
10278;DHT22;5184;51.376;7.148;2023-07-24T07:04:30;18.30;99.90
10278;DHT22;5184;51.376;7.148;2023-07-24T07:06:57;18.30;99.90
10278;DHT22;5184;51.376;7.148;2023-07-24T07:09:23;18.50;99.90
10278;DHT22;5184;51.376;7.148;2023-07-24T07:11:50;18.60;99.90
10278;DHT22;5184;51.376;7.148;2023-07-24T07:14:17;18.70;99.90
10278;DHT22;5184;51.376;7.148;2023-07-24T07:16:43;18.70;99.90
10278;DHT22;5184;51.376;7.148;2023-07-24T07:19:10;18.70;99.90
10278;DHT22;5184;51.376;7.148;2023-07-24T07:21:36;18.60;99.90
10278;DHT22;5184;51.376;7.148;2023-07-24T07:24:04;18.60;99.90
10278;DHT22;5184;51.376;7.148;2023-07-24T07:26:31;18.50;99.90
10278;DHT22;5184;51.376;7.148;2023-07-24T07:28:58;18.50;99.90
10278;DHT22;5184;51.376;7.148;2023-07-24T07:31:25;18.50;99.90
10278;DHT22;5184;51.376;7.148;2023-07-24T07:33:53;18.50;99.90
10278;DHT22;5184;51.376;7.148;2023-07-24T07:36:19;18.50;99.90
10278;DHT22;5184;51.376;7.148;2023-07-24T07:38:46;18.40;99.90
10278;DHT22;5184;51.376;7.148;2023-07-24T07:41:12;18.50;99.90
10278;DHT22;5184;51.376;7.148;2023-07-24T07:43:39;18.50;99.90
10278;DHT22;5184;51.376;7.148;2023-07-24T07:46:06;18.50;99.90
10278;DHT22;5184;51.376;7.148;2023-07-24T07:48:32;18.50;99.90
10278;DHT22;5184;51.376;7.148;2023-07-24T07:50:59;18.40;99.90
10278;DHT22;5184;51.376;7.148;2023-07-24T07:53:26;18.50;99.90
10278;DHT22;5184;51.376;7.148;2023-07-24T07:55:56;18.40;99.90
10278;DHT22;5184;51.376;7.148;2023-07-24T07:58:22;18.50;99.90
10278;DHT22;5184;51.376;7.148;2023-07-24T08:00:49;18.50;99.90
10278;DHT22;5184;51.376;7.148;2023-07-24T08:03:15;18.70;99.90
10278;DHT22;5184;51.376;7.148;2023-07-24T08:05:43;18.80;99.90
10278;DHT22;5184;51.376;7.148;2023-07-24T08:08:10;18.90;79.00
10278;DHT22;5184;51.376;7.148;2023-07-24T08:10:37;18.90;77.50
10278;DHT22;5184;51.376;7.148;2023-07-24T08:13:03;19.00;68.20
10278;DHT22;5184;51.376;7.148;2023-07-24T08:15:37;18.70;1.00
10278;DHT22;5184;51.376;7.148;2023-07-24T08:18:04;19.20;1.00
10278;DHT22;5184;51.376;7.148;2023-07-24T08:20:34;19.40;1.00
10278;DHT22;5184;51.376;7.148;2023-07-24T08:22:59;19.40;99.90
10278;DHT22;5184;51.376;7.148;2023-07-24T08:25:26;19.40;99.90
10278;DHT22;5184;51.376;7.148;2023-07-24T08:27:53;19.40;99.90
10278;DHT22;5184;51.376;7.148;2023-07-24T08:30:19;19.50;99.90
10278;DHT22;5184;51.376;7.148;2023-07-24T08:32:46;19.70;99.90
10278;DHT22;5184;51.376;7.148;2023-07-24T08:35:13;19.80;1.00
10278;DHT22;5184;51.376;7.148;2023-07-24T08:37:43;19.70;1.00
10278;DHT22;5184;51.376;7.148;2023-07-24T08:40:11;19.70;1.00
10278;DHT22;5184;51.376;7.148;2023-07-24T08:42:39;19.80;99.90
10278;DHT22;5184;51.376;7.148;2023-07-24T08:45:12;19.70;99.90
10278;DHT22;5184;51.376;7.148;2023-07-24T08:47:40;19.70;91.50
10278;DHT22;5184;51.376;7.148;2023-07-24T08:50:07;19.60;1.00
10278;DHT22;5184;51.376;7.148;2023-07-24T08:52:34;19.50;1.00
10278;DHT22;5184;51.376;7.148;2023-07-24T08:55:01;19.50;1.00
10278;DHT22;5184;51.376;7.148;2023-07-24T08:57:27;19.60;1.00
10278;DHT22;5184;51.376;7.148;2023-07-24T08:59:54;19.80;19.60
10278;DHT22;5184;51.376;7.148;2023-07-24T09:02:20;19.70;93.90
10278;DHT22;5184;51.376;7.148;2023-07-24T09:04:47;17.90;1.00
10278;DHT22;5184;51.376;7.148;2023-07-24T09:07:14;19.60;1.00
10278;DHT22;5184;51.376;7.148;2023-07-24T09:09:41;19.60;99.90
10278;DHT22;5184;51.376;7.148;2023-07-24T09:12:08;19.50;1.00
10278;DHT22;5184;51.376;7.148;2023-07-24T09:14:36;19.40;99.90
10278;DHT22;5184;51.376;7.148;2023-07-24T09:17:06;19.30;1.00
10278;DHT22;5184;51.376;7.148;2023-07-24T09:19:32;19.30;47.10
10278;DHT22;5184;51.376;7.148;2023-07-24T09:22:10;19.30;21.60
10278;DHT22;5184;51.376;7.148;2023-07-24T09:24:36;19.30;99.90
10278;DHT22;5184;51.376;7.148;2023-07-24T09:27:04;19.30;99.90
10278;DHT22;5184;51.376;7.148;2023-07-24T09:29:30;19.20;99.90
10278;DHT22;5184;51.376;7.148;2023-07-24T09:31:56;19.20;1.00
10278;DHT22;5184;51.376;7.148;2023-07-24T09:34:23;19.30;1.00
10278;DHT22;5184;51.376;7.148;2023-07-24T09:36:49;19.40;1.00
10278;DHT22;5184;51.376;7.148;2023-07-24T09:39:24;19.60;99.90
10278;DHT22;5184;51.376;7.148;2023-07-24T09:41:51;19.50;99.90
10278;DHT22;5184;51.376;7.148;2023-07-24T09:44:17;19.50;99.90
10278;DHT22;5184;51.376;7.148;2023-07-24T09:46:44;19.40;1.00
10278;DHT22;5184;51.376;7.148;2023-07-24T09:49:10;19.50;99.90
10278;DHT22;5184;51.376;7.148;2023-07-24T09:51:37;19.50;99.90
10278;DHT22;5184;51.376;7.148;2023-07-24T09:54:09;19.60;1.00
10278;DHT22;5184;51.376;7.148;2023-07-24T09:56:33;19.60;99.90
10278;DHT22;5184;51.376;7.148;2023-07-24T09:59:00;19.60;99.90
10278;DHT22;5184;51.376;7.148;2023-07-24T10:01:26;19.60;1.00
10278;DHT22;5184;51.376;7.148;2023-07-24T10:03:53;19.40;99.90
10278;DHT22;5184;51.376;7.148;2023-07-24T10:06:21;19.40;99.90
10278;DHT22;5184;51.376;7.148;2023-07-24T10:08:48;19.30;1.00
10278;DHT22;5184;51.376;7.148;2023-07-24T10:11:15;19.30;1.00
10278;DHT22;5184;51.376;7.148;2023-07-24T10:13:41;19.30;1.00
10278;DHT22;5184;51.376;7.148;2023-07-24T10:16:08;19.30;1.00
10278;DHT22;5184;51.376;7.148;2023-07-24T10:18:41;19.60;1.00
10278;DHT22;5184;51.376;7.148;2023-07-24T10:21:05;19.80;99.90
10278;DHT22;5184;51.376;7.148;2023-07-24T10:23:35;19.80;99.90
10278;DHT22;5184;51.376;7.148;2023-07-24T10:26:02;22.90;99.90
10278;DHT22;5184;51.376;7.148;2023-07-24T10:28:31;20.00;1.00
10278;DHT22;5184;51.376;7.148;2023-07-24T10:30:57;20.20;99.90
10278;DHT22;5184;51.376;7.148;2023-07-24T10:33:23;20.40;1.00
10278;DHT22;5184;51.376;7.148;2023-07-24T10:35:53;20.60;99.90
10278;DHT22;5184;51.376;7.148;2023-07-24T10:38:31;20.80;99.90
10278;DHT22;5184;51.376;7.148;2023-07-24T10:40:47;20.80;1.00
10278;DHT22;5184;51.376;7.148;2023-07-24T10:43:18;20.70;1.00
10278;DHT22;5184;51.376;7.148;2023-07-24T10:45:48;20.70;99.90
10278;DHT22;5184;51.376;7.148;2023-07-24T10:48:17;20.80;99.90
10278;DHT22;5184;51.376;7.148;2023-07-24T10:50:44;20.90;99.90
10278;DHT22;5184;51.376;7.148;2023-07-24T10:53:12;21.00;99.90
10278;DHT22;5184;51.376;7.148;2023-07-24T10:55:38;21.10;99.90
10278;DHT22;5184;51.376;7.148;2023-07-24T10:58:05;21.10;99.90
10278;DHT22;5184;51.376;7.148;2023-07-24T11:00:31;21.10;1.00
10278;DHT22;5184;51.376;7.148;2023-07-24T11:02:58;21.10;1.00
10278;DHT22;5184;51.376;7.148;2023-07-24T11:05:25;20.70;87.70
10278;DHT22;5184;51.376;7.148;2023-07-24T11:07:53;20.40;99.90
10278;DHT22;5184;51.376;7.148;2023-07-24T11:10:21;20.00;99.90
10278;DHT22;5184;51.376;7.148;2023-07-24T11:12:47;20.00;99.90
10278;DHT22;5184;51.376;7.148;2023-07-24T11:15:14;19.80;99.90
10278;DHT22;5184;51.376;7.148;2023-07-24T11:17:41;19.70;99.90
10278;DHT22;5184;51.376;7.148;2023-07-24T11:20:11;20.00;1.00
10278;DHT22;5184;51.376;7.148;2023-07-24T11:22:39;20.10;99.90
10278;DHT22;5184;51.376;7.148;2023-07-24T11:25:05;20.30;1.00
10278;DHT22;5184;51.376;7.148;2023-07-24T11:27:32;20.30;99.90
10278;DHT22;5184;51.376;7.148;2023-07-24T11:29:59;20.20;99.90
10278;DHT22;5184;51.376;7.148;2023-07-24T11:32:26;21.20;1.00
10278;DHT22;5184;51.376;7.148;2023-07-24T11:34:53;20.20;99.90
10278;DHT22;5184;51.376;7.148;2023-07-24T11:37:20;20.20;1.00
10278;DHT22;5184;51.376;7.148;2023-07-24T11:39:56;20.00;69.30
10278;DHT22;5184;51.376;7.148;2023-07-24T11:42:26;19.90;1.00
10278;DHT22;5184;51.376;7.148;2023-07-24T11:44:52;19.90;1.00
10278;DHT22;5184;51.376;7.148;2023-07-24T11:47:18;19.90;1.00
10278;DHT22;5184;51.376;7.148;2023-07-24T11:49:55;19.90;1.00
10278;DHT22;5184;51.376;7.148;2023-07-24T11:52:11;19.90;1.00
10278;DHT22;5184;51.376;7.148;2023-07-24T11:54:38;19.90;1.00
10278;DHT22;5184;51.376;7.148;2023-07-24T11:57:15;19.70;1.00
10278;DHT22;5184;51.376;7.148;2023-07-24T11:59:41;21.60;99.90
10278;DHT22;5184;51.376;7.148;2023-07-24T12:02:10;17.40;99.90
10278;DHT22;5184;51.376;7.148;2023-07-24T12:04:37;16.30;83.90
10278;DHT22;5184;51.376;7.148;2023-07-24T12:07:08;15.70;99.90
10278;DHT22;5184;51.376;7.148;2023-07-24T12:09:34;15.50;99.90
10278;DHT22;5184;51.376;7.148;2023-07-24T12:12:02;15.10;99.90
10278;DHT22;5184;51.376;7.148;2023-07-24T12:14:28;15.00;99.90
10278;DHT22;5184;51.376;7.148;2023-07-24T12:17:00;15.00;99.90
10278;DHT22;5184;51.376;7.148;2023-07-24T12:19:26;15.00;99.90
10278;DHT22;5184;51.376;7.148;2023-07-24T12:21:54;15.00;99.90
10278;DHT22;5184;51.376;7.148;2023-07-24T12:24:21;15.00;99.90
10278;DHT22;5184;51.376;7.148;2023-07-24T12:26:48;15.10;99.90
10278;DHT22;5184;51.376;7.148;2023-07-24T12:29:16;15.10;99.90
10278;DHT22;5184;51.376;7.148;2023-07-24T12:31:42;15.20;99.90
10278;DHT22;5184;51.376;7.148;2023-07-24T12:34:10;15.20;99.90
10278;DHT22;5184;51.376;7.148;2023-07-24T12:36:36;15.40;99.90
10278;DHT22;5184;51.376;7.148;2023-07-24T12:39:03;15.40;99.90
10278;DHT22;5184;51.376;7.148;2023-07-24T12:41:30;15.20;99.90
10278;DHT22;5184;51.376;7.148;2023-07-24T12:43:56;15.50;99.90
10278;DHT22;5184;51.376;7.148;2023-07-24T12:46:24;15.60;99.90
10278;DHT22;5184;51.376;7.148;2023-07-24T12:48:51;15.80;99.90
10278;DHT22;5184;51.376;7.148;2023-07-24T12:51:18;16.00;99.90
10278;DHT22;5184;51.376;7.148;2023-07-24T12:53:45;16.40;99.90
10278;DHT22;5184;51.376;7.148;2023-07-24T12:56:12;16.40;99.90
10278;DHT22;5184;51.376;7.148;2023-07-24T12:58:38;16.90;99.90
10278;DHT22;5184;51.376;7.148;2023-07-24T13:01:05;17.00;99.90
10278;DHT22;5184;51.376;7.148;2023-07-24T13:03:31;17.20;99.90
10278;DHT22;5184;51.376;7.148;2023-07-24T13:05:59;17.60;99.90
10278;DHT22;5184;51.376;7.148;2023-07-24T13:08:25;17.50;99.90
10278;DHT22;5184;51.376;7.148;2023-07-24T13:10:52;17.80;99.90
10278;DHT22;5184;51.376;7.148;2023-07-24T13:13:19;18.00;99.90
10278;DHT22;5184;51.376;7.148;2023-07-24T13:15:45;17.90;99.90
10278;DHT22;5184;51.376;7.148;2023-07-24T13:18:12;17.80;99.90
10278;DHT22;5184;51.376;7.148;2023-07-24T13:20:40;18.30;99.90
10278;DHT22;5184;51.376;7.148;2023-07-24T13:23:07;18.50;99.90
10278;DHT22;5184;51.376;7.148;2023-07-24T13:25:35;18.70;99.90
10278;DHT22;5184;51.376;7.148;2023-07-24T13:28:01;18.70;99.90
10278;DHT22;5184;51.376;7.148;2023-07-24T13:30:28;19.00;99.90
10278;DHT22;5184;51.376;7.148;2023-07-24T13:32:55;19.10;99.90
10278;DHT22;5184;51.376;7.148;2023-07-24T13:35:21;19.30;99.90
10278;DHT22;5184;51.376;7.148;2023-07-24T13:37:48;19.50;99.90
10278;DHT22;5184;51.376;7.148;2023-07-24T13:40:15;19.80;1.00
10278;DHT22;5184;51.376;7.148;2023-07-24T13:42:42;19.70;1.00
10278;DHT22;5184;51.376;7.148;2023-07-24T13:45:10;19.70;1.00
10278;DHT22;5184;51.376;7.148;2023-07-24T13:47:37;19.80;1.00
10278;DHT22;5184;51.376;7.148;2023-07-24T13:50:05;20.10;1.00
10278;DHT22;5184;51.376;7.148;2023-07-24T13:52:32;20.00;1.00
10278;DHT22;5184;51.376;7.148;2023-07-24T13:54:58;21.50;99.90
10278;DHT22;5184;51.376;7.148;2023-07-24T13:57:25;20.40;1.00
10278;DHT22;5184;51.376;7.148;2023-07-24T13:59:51;20.40;99.90
10278;DHT22;5184;51.376;7.148;2023-07-24T14:02:18;20.50;99.90
10278;DHT22;5184;51.376;7.148;2023-07-24T14:04:45;20.60;99.90
10278;DHT22;5184;51.376;7.148;2023-07-24T14:07:13;20.90;1.00
10278;DHT22;5184;51.376;7.148;2023-07-24T14:09:40;21.00;1.00
10278;DHT22;5184;51.376;7.148;2023-07-24T14:12:07;21.10;99.90
10278;DHT22;5184;51.376;7.148;2023-07-24T14:14:35;21.20;99.90
10278;DHT22;5184;51.376;7.148;2023-07-24T14:17:01;21.20;99.90
10278;DHT22;5184;51.376;7.148;2023-07-24T14:19:29;20.90;99.90
10278;DHT22;5184;51.376;7.148;2023-07-24T14:21:56;20.90;99.90
10278;DHT22;5184;51.376;7.148;2023-07-24T14:24:23;20.90;99.90
10278;DHT22;5184;51.376;7.148;2023-07-24T14:26:49;21.30;99.90
10278;DHT22;5184;51.376;7.148;2023-07-24T14:29:16;21.20;1.00
10278;DHT22;5184;51.376;7.148;2023-07-24T14:31:43;20.90;99.90
10278;DHT22;5184;51.376;7.148;2023-07-24T14:34:09;20.60;1.00
10278;DHT22;5184;51.376;7.148;2023-07-24T14:36:36;20.10;70.40
10278;DHT22;5184;51.376;7.148;2023-07-24T14:39:04;20.00;64.40
10278;DHT22;5184;51.376;7.148;2023-07-24T14:41:31;19.90;1.00
10278;DHT22;5184;51.376;7.148;2023-07-24T14:43:58;19.70;1.00
10278;DHT22;5184;51.376;7.148;2023-07-24T14:46:25;19.70;1.00
10278;DHT22;5184;51.376;7.148;2023-07-24T14:48:52;19.60;99.90
10278;DHT22;5184;51.376;7.148;2023-07-24T14:51:18;19.60;99.90
10278;DHT22;5184;51.376;7.148;2023-07-24T14:53:45;19.50;99.90
10278;DHT22;5184;51.376;7.148;2023-07-24T14:56:11;19.50;99.90
10278;DHT22;5184;51.376;7.148;2023-07-24T14:58:39;19.60;41.80
10278;DHT22;5184;51.376;7.148;2023-07-24T15:01:06;19.50;99.90
10278;DHT22;5184;51.376;7.148;2023-07-24T15:03:34;19.50;99.90
10278;DHT22;5184;51.376;7.148;2023-07-24T15:06:00;19.40;99.90
10278;DHT22;5184;51.376;7.148;2023-07-24T15:08:27;19.30;99.90
10278;DHT22;5184;51.376;7.148;2023-07-24T15:10:53;19.10;99.90
10278;DHT22;5184;51.376;7.148;2023-07-24T15:13:21;18.90;99.90
10278;DHT22;5184;51.376;7.148;2023-07-24T15:15:48;18.80;99.90
10278;DHT22;5184;51.376;7.148;2023-07-24T15:18:15;18.90;99.90
10278;DHT22;5184;51.376;7.148;2023-07-24T15:20:43;19.10;99.90
10278;DHT22;5184;51.376;7.148;2023-07-24T15:23:09;19.10;99.90
10278;DHT22;5184;51.376;7.148;2023-07-24T15:25:36;19.70;99.90
10278;DHT22;5184;51.376;7.148;2023-07-24T15:28:03;19.70;99.90
10278;DHT22;5184;51.376;7.148;2023-07-24T15:30:30;20.60;35.60
10278;DHT22;5184;51.376;7.148;2023-07-24T15:32:56;20.50;33.60
10278;DHT22;5184;51.376;7.148;2023-07-24T15:35:23;21.30;1.00
10278;DHT22;5184;51.376;7.148;2023-07-24T15:37:50;22.00;95.70
10278;DHT22;5184;51.376;7.148;2023-07-24T15:40:17;22.00;81.90
10278;DHT22;5184;51.376;7.148;2023-07-24T15:42:44;22.40;99.90
10278;DHT22;5184;51.376;7.148;2023-07-24T15:45:12;22.00;48.00